Terminal Aerodrome Forecast
Issued by NWS

Home | Current Version | Previous Version | Graphics & Text | Print | Product List | Glossary Off
Versions: 1 2 3 4 5 6 7 8 9 10 11 12 13 14 15 16 17 18 19

000
FTUS43 KABR 281605 AAA
TAFPIR
TAF AMD
KPIR 281605Z 2816/2912 20012G15KT P6SM SCT150
     FM282100 31007KT P6SM BKN250
     FM290200 34012KT P6SM OVC250=

USA.gov is the U.S. government's official web portal to all federal, state and local government web resources and services.